Saint-Remi, Canada
Current Conditions -  °F | °C
As of 9:00 PM on Monday 22 Dec 2014 (Local Time) from CYUL Reporting Station
Overcast Overcast  
Wind Chill:   Ceiling: 4200
Heat Index: 19°   Visibility: 10mi
Dew Point: 16°   Wind: 9mph
Humidity: 86%   Direction: 30°NNE
Pressure: 30.32"   Gusts: NA
Location:  45.25°N, 73.6°W
Report Text: CYUL 230200Z 03008KT 10SM OVC042 M07/M09 A3032 RMK SC8 SLP270
Loading
Personal Weather Stations






























Interactive Weather Map New forecast layout! Learn more

10-Day Weather Forecast

Advertisements
Track Severe Weather on mobile